sensor_id;sensor_type;location;lat;lon;timestamp;P1;durP1;ratioP1;P2;durP2;ratioP2
5646;SDS011;2845;48.626;9.362;2023-06-24T00:00:43;4.38;;;2.33;;
5646;SDS011;2845;48.626;9.362;2023-06-24T00:03:18;4.20;;;2.15;;
5646;SDS011;2845;48.626;9.362;2023-06-24T00:05:52;4.80;;;2.08;;
5646;SDS011;2845;48.626;9.362;2023-06-24T00:08:30;4.10;;;1.92;;
5646;SDS011;2845;48.626;9.362;2023-06-24T00:11:06;5.78;;;1.73;;
5646;SDS011;2845;48.626;9.362;2023-06-24T00:13:41;4.40;;;1.85;;
5646;SDS011;2845;48.626;9.362;2023-06-24T00:16:16;3.30;;;1.55;;
5646;SDS011;2845;48.626;9.362;2023-06-24T00:18:50;5.15;;;2.40;;
5646;SDS011;2845;48.626;9.362;2023-06-24T00:21:25;4.80;;;2.20;;
5646;SDS011;2845;48.626;9.362;2023-06-24T00:24:03;5.50;;;2.20;;
5646;SDS011;2845;48.626;9.362;2023-06-24T00:26:38;3.85;;;2.10;;
5646;SDS011;2845;48.626;9.362;2023-06-24T00:29:12;3.88;;;2.03;;
5646;SDS011;2845;48.626;9.362;2023-06-24T00:31:47;4.20;;;2.17;;
5646;SDS011;2845;48.626;9.362;2023-06-24T00:34:21;3.25;;;1.95;;
5646;SDS011;2845;48.626;9.362;2023-06-24T00:36:56;4.40;;;1.90;;
5646;SDS011;2845;48.626;9.362;2023-06-24T00:39:31;3.70;;;1.77;;
5646;SDS011;2845;48.626;9.362;2023-06-24T00:42:06;3.83;;;2.10;;
5646;SDS011;2845;48.626;9.362;2023-06-24T00:44:40;3.05;;;1.70;;
5646;SDS011;2845;48.626;9.362;2023-06-24T00:47:14;3.42;;;2.08;;
5646;SDS011;2845;48.626;9.362;2023-06-24T00:49:49;4.13;;;2.10;;
5646;SDS011;2845;48.626;9.362;2023-06-24T00:52:23;5.00;;;2.33;;
5646;SDS011;2845;48.626;9.362;2023-06-24T00:54:59;3.88;;;2.20;;
5646;SDS011;2845;48.626;9.362;2023-06-24T00:57:35;4.43;;;1.98;;
5646;SDS011;2845;48.626;9.362;2023-06-24T01:00:13;3.70;;;1.90;;
5646;SDS011;2845;48.626;9.362;2023-06-24T01:02:50;4.00;;;1.80;;
5646;SDS011;2845;48.626;9.362;2023-06-24T01:05:25;6.10;;;1.85;;
5646;SDS011;2845;48.626;9.362;2023-06-24T01:08:01;3.85;;;1.90;;
5646;SDS011;2845;48.626;9.362;2023-06-24T01:10:37;3.88;;;1.85;;
5646;SDS011;2845;48.626;9.362;2023-06-24T01:13:12;4.53;;;2.10;;
5646;SDS011;2845;48.626;9.362;2023-06-24T01:15:46;4.28;;;2.00;;
5646;SDS011;2845;48.626;9.362;2023-06-24T01:18:23;5.18;;;2.42;;
5646;SDS011;2845;48.626;9.362;2023-06-24T01:21:08;4.72;;;2.15;;
5646;SDS011;2845;48.626;9.362;2023-06-24T01:24:00;3.88;;;1.98;;
5646;SDS011;2845;48.626;9.362;2023-06-24T01:27:18;5.53;;;1.90;;
5646;SDS011;2845;48.626;9.362;2023-06-24T01:30:30;4.15;;;2.05;;
5646;SDS011;2845;48.626;9.362;2023-06-24T01:33:54;4.95;;;1.73;;
5646;SDS011;2845;48.626;9.362;2023-06-24T01:36:36;4.45;;;2.22;;
5646;SDS011;2845;48.626;9.362;2023-06-24T01:39:14;4.32;;;2.10;;
5646;SDS011;2845;48.626;9.362;2023-06-24T01:41:51;3.75;;;1.88;;
5646;SDS011;2845;48.626;9.362;2023-06-24T01:44:33;5.50;;;2.38;;
5646;SDS011;2845;48.626;9.362;2023-06-24T01:47:10;3.60;;;2.08;;
5646;SDS011;2845;48.626;9.362;2023-06-24T01:49:48;2.97;;;1.70;;
5646;SDS011;2845;48.626;9.362;2023-06-24T01:52:26;3.28;;;1.95;;
5646;SDS011;2845;48.626;9.362;2023-06-24T01:55:03;3.95;;;2.08;;
5646;SDS011;2845;48.626;9.362;2023-06-24T01:57:40;3.63;;;2.08;;
5646;SDS011;2845;48.626;9.362;2023-06-24T02:00:17;3.45;;;1.88;;
5646;SDS011;2845;48.626;9.362;2023-06-24T02:02:53;4.93;;;2.20;;
5646;SDS011;2845;48.626;9.362;2023-06-24T02:05:29;3.72;;;2.20;;
5646;SDS011;2845;48.626;9.362;2023-06-24T02:08:06;4.20;;;2.08;;
5646;SDS011;2845;48.626;9.362;2023-06-24T02:10:42;3.55;;;2.22;;
5646;SDS011;2845;48.626;9.362;2023-06-24T02:13:19;3.67;;;1.60;;
5646;SDS011;2845;48.626;9.362;2023-06-24T02:15:54;4.07;;;2.10;;
5646;SDS011;2845;48.626;9.362;2023-06-24T02:18:30;3.85;;;1.95;;
5646;SDS011;2845;48.626;9.362;2023-06-24T02:21:05;3.45;;;1.92;;
5646;SDS011;2845;48.626;9.362;2023-06-24T02:23:39;3.53;;;1.70;;
5646;SDS011;2845;48.626;9.362;2023-06-24T02:26:16;3.47;;;2.08;;
5646;SDS011;2845;48.626;9.362;2023-06-24T02:28:51;2.95;;;1.60;;
5646;SDS011;2845;48.626;9.362;2023-06-24T02:31:28;3.38;;;1.77;;
5646;SDS011;2845;48.626;9.362;2023-06-24T02:34:04;4.00;;;2.10;;
5646;SDS011;2845;48.626;9.362;2023-06-24T02:36:38;4.45;;;2.00;;
5646;SDS011;2845;48.626;9.362;2023-06-24T02:39:13;4.28;;;2.08;;
5646;SDS011;2845;48.626;9.362;2023-06-24T02:41:47;4.80;;;2.08;;
5646;SDS011;2845;48.626;9.362;2023-06-24T02:44:22;4.00;;;2.00;;
5646;SDS011;2845;48.626;9.362;2023-06-24T02:46:56;3.95;;;2.30;;
5646;SDS011;2845;48.626;9.362;2023-06-24T02:49:32;3.90;;;2.17;;
5646;SDS011;2845;48.626;9.362;2023-06-24T02:52:09;3.80;;;2.10;;
5646;SDS011;2845;48.626;9.362;2023-06-24T02:54:43;3.63;;;1.70;;
5646;SDS011;2845;48.626;9.362;2023-06-24T02:57:19;4.85;;;1.85;;
5646;SDS011;2845;48.626;9.362;2023-06-24T02:59:53;5.63;;;2.20;;
5646;SDS011;2845;48.626;9.362;2023-06-24T03:02:27;3.03;;;1.80;;
5646;SDS011;2845;48.626;9.362;2023-06-24T03:05:04;4.15;;;2.05;;
5646;SDS011;2845;48.626;9.362;2023-06-24T03:07:41;5.72;;;2.35;;
5646;SDS011;2845;48.626;9.362;2023-06-24T03:10:16;3.83;;;1.83;;
5646;SDS011;2845;48.626;9.362;2023-06-24T03:12:50;4.07;;;2.20;;
5646;SDS011;2845;48.626;9.362;2023-06-24T03:15:26;5.28;;;2.33;;
5646;SDS011;2845;48.626;9.362;2023-06-24T03:18:00;5.20;;;2.35;;
5646;SDS011;2845;48.626;9.362;2023-06-24T03:20:36;5.93;;;2.42;;
5646;SDS011;2845;48.626;9.362;2023-06-24T03:23:12;5.03;;;2.22;;
5646;SDS011;2845;48.626;9.362;2023-06-24T03:25:47;3.60;;;1.85;;
5646;SDS011;2845;48.626;9.362;2023-06-24T03:28:21;5.85;;;2.50;;
5646;SDS011;2845;48.626;9.362;2023-06-24T03:30:55;4.82;;;2.80;;
5646;SDS011;2845;48.626;9.362;2023-06-24T03:33:29;8.25;;;3.03;;
5646;SDS011;2845;48.626;9.362;2023-06-24T03:36:05;7.05;;;3.42;;
5646;SDS011;2845;48.626;9.362;2023-06-24T03:38:39;6.88;;;3.00;;
5646;SDS011;2845;48.626;9.362;2023-06-24T03:41:14;5.22;;;2.42;;
5646;SDS011;2845;48.626;9.362;2023-06-24T03:43:48;3.50;;;2.03;;
5646;SDS011;2845;48.626;9.362;2023-06-24T03:46:22;3.65;;;2.20;;
5646;SDS011;2845;48.626;9.362;2023-06-24T03:48:58;7.00;;;2.45;;
5646;SDS011;2845;48.626;9.362;2023-06-24T03:51:34;6.15;;;2.28;;
5646;SDS011;2845;48.626;9.362;2023-06-24T03:54:08;4.85;;;2.47;;
5646;SDS011;2845;48.626;9.362;2023-06-24T03:56:43;6.50;;;2.30;;
5646;SDS011;2845;48.626;9.362;2023-06-24T03:59:18;5.20;;;2.17;;
5646;SDS011;2845;48.626;9.362;2023-06-24T04:01:52;5.07;;;2.03;;
5646;SDS011;2845;48.626;9.362;2023-06-24T04:04:27;4.13;;;2.25;;
5646;SDS011;2845;48.626;9.362;2023-06-24T04:07:02;4.38;;;2.10;;
5646;SDS011;2845;48.626;9.362;2023-06-24T04:09:38;4.32;;;2.28;;
5646;SDS011;2845;48.626;9.362;2023-06-24T04:12:13;4.70;;;2.33;;
5646;SDS011;2845;48.626;9.362;2023-06-24T04:14:47;4.40;;;2.03;;
5646;SDS011;2845;48.626;9.362;2023-06-24T04:17:21;3.35;;;1.60;;
5646;SDS011;2845;48.626;9.362;2023-06-24T04:19:56;3.67;;;1.98;;
5646;SDS011;2845;48.626;9.362;2023-06-24T04:22:32;4.25;;;2.28;;
5646;SDS011;2845;48.626;9.362;2023-06-24T04:25:06;4.35;;;2.00;;
5646;SDS011;2845;48.626;9.362;2023-06-24T04:27:41;4.07;;;1.85;;
5646;SDS011;2845;48.626;9.362;2023-06-24T04:30:16;3.78;;;2.05;;
5646;SDS011;2845;48.626;9.362;2023-06-24T04:32:50;4.13;;;1.83;;
5646;SDS011;2845;48.626;9.362;2023-06-24T04:35:24;4.50;;;2.03;;
5646;SDS011;2845;48.626;9.362;2023-06-24T04:38:02;3.95;;;2.10;;
5646;SDS011;2845;48.626;9.362;2023-06-24T04:40:37;4.60;;;2.45;;
5646;SDS011;2845;48.626;9.362;2023-06-24T04:43:12;6.43;;;2.70;;
5646;SDS011;2845;48.626;9.362;2023-06-24T04:45:47;4.93;;;2.50;;
5646;SDS011;2845;48.626;9.362;2023-06-24T04:48:22;3.95;;;2.30;;
5646;SDS011;2845;48.626;9.362;2023-06-24T04:50:56;3.83;;;2.13;;
5646;SDS011;2845;48.626;9.362;2023-06-24T04:53:32;4.07;;;2.40;;
5646;SDS011;2845;48.626;9.362;2023-06-24T04:56:07;4.45;;;2.58;;
5646;SDS011;2845;48.626;9.362;2023-06-24T04:58:41;5.50;;;2.55;;
5646;SDS011;2845;48.626;9.362;2023-06-24T05:01:15;6.15;;;2.65;;
5646;SDS011;2845;48.626;9.362;2023-06-24T05:03:50;4.82;;;2.50;;
5646;SDS011;2845;48.626;9.362;2023-06-24T05:06:25;3.55;;;2.20;;
5646;SDS011;2845;48.626;9.362;2023-06-24T05:09:01;4.72;;;2.40;;
5646;SDS011;2845;48.626;9.362;2023-06-24T05:11:35;5.05;;;2.35;;
5646;SDS011;2845;48.626;9.362;2023-06-24T05:14:10;5.40;;;2.83;;
5646;SDS011;2845;48.626;9.362;2023-06-24T05:16:44;5.03;;;2.50;;
5646;SDS011;2845;48.626;9.362;2023-06-24T05:19:18;3.88;;;2.20;;
5646;SDS011;2845;48.626;9.362;2023-06-24T05:21:52;5.57;;;2.35;;
5646;SDS011;2845;48.626;9.362;2023-06-24T05:24:28;4.47;;;2.78;;
5646;SDS011;2845;48.626;9.362;2023-06-24T05:27:03;3.50;;;2.13;;
5646;SDS011;2845;48.626;9.362;2023-06-24T05:29:39;3.80;;;2.30;;
5646;SDS011;2845;48.626;9.362;2023-06-24T05:32:14;4.45;;;2.33;;
5646;SDS011;2845;48.626;9.362;2023-06-24T05:34:49;4.53;;;1.83;;
5646;SDS011;2845;48.626;9.362;2023-06-24T05:37:24;5.97;;;2.67;;
5646;SDS011;2845;48.626;9.362;2023-06-24T05:39:59;4.38;;;2.15;;
5646;SDS011;2845;48.626;9.362;2023-06-24T05:42:34;5.22;;;2.15;;
5646;SDS011;2845;48.626;9.362;2023-06-24T05:45:09;4.63;;;2.22;;
5646;SDS011;2845;48.626;9.362;2023-06-24T05:47:44;5.00;;;2.20;;
5646;SDS011;2845;48.626;9.362;2023-06-24T05:50:19;6.28;;;2.80;;
5646;SDS011;2845;48.626;9.362;2023-06-24T05:52:53;4.90;;;2.30;;
5646;SDS011;2845;48.626;9.362;2023-06-24T05:55:28;4.60;;;2.53;;
5646;SDS011;2845;48.626;9.362;2023-06-24T05:58:03;4.93;;;2.40;;
5646;SDS011;2845;48.626;9.362;2023-06-24T06:00:37;4.38;;;2.15;;
5646;SDS011;2845;48.626;9.362;2023-06-24T06:03:15;5.05;;;2.60;;
5646;SDS011;2845;48.626;9.362;2023-06-24T06:05:49;6.07;;;2.70;;
5646;SDS011;2845;48.626;9.362;2023-06-24T06:08:24;5.28;;;2.90;;
5646;SDS011;2845;48.626;9.362;2023-06-24T06:10:59;4.18;;;2.60;;
5646;SDS011;2845;48.626;9.362;2023-06-24T06:13:35;4.78;;;2.55;;
5646;SDS011;2845;48.626;9.362;2023-06-24T06:16:09;4.75;;;2.58;;
5646;SDS011;2845;48.626;9.362;2023-06-24T06:18:43;4.72;;;2.60;;
5646;SDS011;2845;48.626;9.362;2023-06-24T06:21:18;4.25;;;2.55;;
5646;SDS011;2845;48.626;9.362;2023-06-24T06:23:52;5.60;;;2.85;;
5646;SDS011;2845;48.626;9.362;2023-06-24T06:26:28;5.97;;;2.50;;
5646;SDS011;2845;48.626;9.362;2023-06-24T06:29:02;5.65;;;2.72;;
5646;SDS011;2845;48.626;9.362;2023-06-24T06:31:37;6.15;;;2.65;;
5646;SDS011;2845;48.626;9.362;2023-06-24T06:34:12;4.32;;;2.22;;
5646;SDS011;2845;48.626;9.362;2023-06-24T06:36:46;4.88;;;2.38;;
5646;SDS011;2845;48.626;9.362;2023-06-24T06:39:21;3.90;;;1.98;;
5646;SDS011;2845;48.626;9.362;2023-06-24T06:41:56;4.22;;;2.33;;
5646;SDS011;2845;48.626;9.362;2023-06-24T06:44:31;4.18;;;2.08;;
5646;SDS011;2845;48.626;9.362;2023-06-24T06:47:05;4.45;;;2.40;;
5646;SDS011;2845;48.626;9.362;2023-06-24T06:49:40;5.18;;;2.42;;
5646;SDS011;2845;48.626;9.362;2023-06-24T06:52:14;4.10;;;2.20;;
5646;SDS011;2845;48.626;9.362;2023-06-24T06:54:49;4.25;;;2.00;;
5646;SDS011;2845;48.626;9.362;2023-06-24T06:57:25;3.25;;;2.00;;
5646;SDS011;2845;48.626;9.362;2023-06-24T07:00:00;3.90;;;2.03;;
5646;SDS011;2845;48.626;9.362;2023-06-24T07:02:34;3.70;;;2.05;;
5646;SDS011;2845;48.626;9.362;2023-06-24T07:05:08;3.75;;;1.98;;
5646;SDS011;2845;48.626;9.362;2023-06-24T07:07:43;4.50;;;1.92;;
5646;SDS011;2845;48.626;9.362;2023-06-24T07:10:18;3.83;;;1.88;;
5646;SDS011;2845;48.626;9.362;2023-06-24T07:12:53;4.97;;;2.47;;
5646;SDS011;2845;48.626;9.362;2023-06-24T07:15:30;4.68;;;2.05;;
5646;SDS011;2845;48.626;9.362;2023-06-24T07:18:04;4.18;;;2.08;;
5646;SDS011;2845;48.626;9.362;2023-06-24T07:20:39;4.43;;;2.05;;
5646;SDS011;2845;48.626;9.362;2023-06-24T07:23:14;4.22;;;2.10;;
5646;SDS011;2845;48.626;9.362;2023-06-24T07:25:48;4.43;;;2.20;;
5646;SDS011;2845;48.626;9.362;2023-06-24T07:28:23;3.83;;;1.85;;
5646;SDS011;2845;48.626;9.362;2023-06-24T07:30:58;3.38;;;2.25;;
5646;SDS011;2845;48.626;9.362;2023-06-24T07:33:32;4.28;;;2.15;;
5646;SDS011;2845;48.626;9.362;2023-06-24T07:36:07;3.65;;;2.13;;
5646;SDS011;2845;48.626;9.362;2023-06-24T07:38:43;3.95;;;1.90;;
5646;SDS011;2845;48.626;9.362;2023-06-24T07:41:17;4.47;;;2.28;;
5646;SDS011;2845;48.626;9.362;2023-06-24T07:43:53;3.70;;;1.92;;
5646;SDS011;2845;48.626;9.362;2023-06-24T07:46:27;3.50;;;1.88;;
5646;SDS011;2845;48.626;9.362;2023-06-24T07:49:08;3.20;;;2.03;;
5646;SDS011;2845;48.626;9.362;2023-06-24T07:51:42;3.90;;;2.00;;
5646;SDS011;2845;48.626;9.362;2023-06-24T07:54:17;3.88;;;2.05;;
5646;SDS011;2845;48.626;9.362;2023-06-24T07:56:51;2.83;;;1.73;;
5646;SDS011;2845;48.626;9.362;2023-06-24T07:59:27;4.10;;;2.10;;
5646;SDS011;2845;48.626;9.362;2023-06-24T08:02:01;3.50;;;2.20;;
5646;SDS011;2845;48.626;9.362;2023-06-24T08:04:35;2.83;;;1.50;;
5646;SDS011;2845;48.626;9.362;2023-06-24T08:07:10;3.97;;;2.17;;
5646;SDS011;2845;48.626;9.362;2023-06-24T08:09:44;3.08;;;1.83;;
5646;SDS011;2845;48.626;9.362;2023-06-24T08:12:18;3.53;;;1.77;;
5646;SDS011;2845;48.626;9.362;2023-06-24T08:14:54;4.65;;;2.13;;
5646;SDS011;2845;48.626;9.362;2023-06-24T08:17:28;2.08;;;1.40;;
5646;SDS011;2845;48.626;9.362;2023-06-24T08:20:03;3.60;;;1.90;;
5646;SDS011;2845;48.626;9.362;2023-06-24T08:22:38;3.10;;;1.73;;
5646;SDS011;2845;48.626;9.362;2023-06-24T08:25:12;3.22;;;2.00;;
5646;SDS011;2845;48.626;9.362;2023-06-24T08:27:46;4.35;;;2.28;;
5646;SDS011;2845;48.626;9.362;2023-06-24T08:30:22;3.33;;;1.83;;
5646;SDS011;2845;48.626;9.362;2023-06-24T08:32:56;4.03;;;1.80;;
5646;SDS011;2845;48.626;9.362;2023-06-24T08:35:30;4.15;;;2.00;;
5646;SDS011;2845;48.626;9.362;2023-06-24T08:38:05;3.42;;;1.90;;
5646;SDS011;2845;48.626;9.362;2023-06-24T08:40:39;3.97;;;2.00;;
5646;SDS011;2845;48.626;9.362;2023-06-24T08:43:15;2.92;;;2.25;;
5646;SDS011;2845;48.626;9.362;2023-06-24T08:45:51;3.17;;;1.52;;
5646;SDS011;2845;48.626;9.362;2023-06-24T08:48:26;2.70;;;1.52;;
5646;SDS011;2845;48.626;9.362;2023-06-24T08:51:03;2.63;;;1.65;;
5646;SDS011;2845;48.626;9.362;2023-06-24T08:53:38;3.22;;;2.00;;
5646;SDS011;2845;48.626;9.362;2023-06-24T08:56:16;3.38;;;1.90;;
5646;SDS011;2845;48.626;9.362;2023-06-24T08:58:51;3.95;;;2.13;;
5646;SDS011;2845;48.626;9.362;2023-06-24T09:01:27;4.20;;;1.98;;
5646;SDS011;2845;48.626;9.362;2023-06-24T09:04:02;4.40;;;1.90;;
5646;SDS011;2845;48.626;9.362;2023-06-24T09:06:37;3.33;;;1.88;;
5646;SDS011;2845;48.626;9.362;2023-06-24T09:09:17;3.63;;;1.77;;
5646;SDS011;2845;48.626;9.362;2023-06-24T09:11:53;3.58;;;1.92;;
5646;SDS011;2845;48.626;9.362;2023-06-24T09:14:29;3.67;;;1.80;;
5646;SDS011;2845;48.626;9.362;2023-06-24T09:17:05;6.63;;;2.17;;
5646;SDS011;2845;48.626;9.362;2023-06-24T09:19:41;2.95;;;1.92;;
5646;SDS011;2845;48.626;9.362;2023-06-24T09:22:16;3.90;;;1.80;;
5646;SDS011;2845;48.626;9.362;2023-06-24T09:24:51;3.55;;;2.00;;
5646;SDS011;2845;48.626;9.362;2023-06-24T09:27:25;2.88;;;1.52;;
5646;SDS011;2845;48.626;9.362;2023-06-24T09:30:16;3.15;;;1.88;;
5646;SDS011;2845;48.626;9.362;2023-06-24T09:32:54;3.17;;;1.90;;
5646;SDS011;2845;48.626;9.362;2023-06-24T09:35:29;3.95;;;1.98;;
5646;SDS011;2845;48.626;9.362;2023-06-24T09:38:10;3.95;;;1.80;;
5646;SDS011;2845;48.626;9.362;2023-06-24T09:40:46;3.72;;;1.90;;
5646;SDS011;2845;48.626;9.362;2023-06-24T09:43:21;2.85;;;1.83;;
5646;SDS011;2845;48.626;9.362;2023-06-24T09:45:56;3.40;;;1.85;;
5646;SDS011;2845;48.626;9.362;2023-06-24T09:48:32;2.97;;;1.70;;
5646;SDS011;2845;48.626;9.362;2023-06-24T09:51:06;3.00;;;1.75;;
5646;SDS011;2845;48.626;9.362;2023-06-24T09:53:42;2.95;;;1.77;;
5646;SDS011;2845;48.626;9.362;2023-06-24T09:56:17;2.83;;;1.65;;
5646;SDS011;2845;48.626;9.362;2023-06-24T09:58:52;3.22;;;1.92;;
5646;SDS011;2845;48.626;9.362;2023-06-24T10:01:26;2.95;;;1.58;;
5646;SDS011;2845;48.626;9.362;2023-06-24T10:04:02;3.70;;;1.80;;
5646;SDS011;2845;48.626;9.362;2023-06-24T10:06:38;2.90;;;2.03;;
5646;SDS011;2845;48.626;9.362;2023-06-24T10:09:12;3.10;;;1.80;;
5646;SDS011;2845;48.626;9.362;2023-06-24T10:11:49;2.88;;;1.70;;
5646;SDS011;2845;48.626;9.362;2023-06-24T10:14:23;4.03;;;1.92;;
5646;SDS011;2845;48.626;9.362;2023-06-24T10:17:01;2.95;;;1.63;;
5646;SDS011;2845;48.626;9.362;2023-06-24T10:19:38;3.75;;;1.90;;
5646;SDS011;2845;48.626;9.362;2023-06-24T10:22:14;2.60;;;1.73;;
5646;SDS011;2845;48.626;9.362;2023-06-24T10:24:48;3.60;;;1.92;;
5646;SDS011;2845;48.626;9.362;2023-06-24T10:27:25;2.13;;;1.67;;
5646;SDS011;2845;48.626;9.362;2023-06-24T10:30:01;2.90;;;1.60;;
5646;SDS011;2845;48.626;9.362;2023-06-24T10:32:40;3.13;;;1.80;;
5646;SDS011;2845;48.626;9.362;2023-06-24T10:35:23;3.15;;;1.90;;
5646;SDS011;2845;48.626;9.362;2023-06-24T10:38:02;3.17;;;1.92;;
5646;SDS011;2845;48.626;9.362;2023-06-24T10:40:37;3.25;;;1.50;;
5646;SDS011;2845;48.626;9.362;2023-06-24T10:43:25;4.00;;;1.90;;
5646;SDS011;2845;48.626;9.362;2023-06-24T10:46:06;2.97;;;1.60;;
5646;SDS011;2845;48.626;9.362;2023-06-24T10:48:49;2.55;;;1.63;;
5646;SDS011;2845;48.626;9.362;2023-06-24T10:51:24;2.85;;;1.50;;
5646;SDS011;2845;48.626;9.362;2023-06-24T10:53:59;3.15;;;1.50;;
5646;SDS011;2845;48.626;9.362;2023-06-24T10:56:33;2.63;;;1.60;;
5646;SDS011;2845;48.626;9.362;2023-06-24T10:59:07;2.88;;;1.77;;
5646;SDS011;2845;48.626;9.362;2023-06-24T11:01:51;2.78;;;1.60;;
5646;SDS011;2845;48.626;9.362;2023-06-24T11:04:26;2.40;;;1.65;;
5646;SDS011;2845;48.626;9.362;2023-06-24T11:07:02;2.75;;;1.48;;
5646;SDS011;2845;48.626;9.362;2023-06-24T11:09:37;2.60;;;1.50;;
5646;SDS011;2845;48.626;9.362;2023-06-24T11:12:11;2.33;;;1.70;;
5646;SDS011;2845;48.626;9.362;2023-06-24T11:14:45;3.45;;;1.60;;
5646;SDS011;2845;48.626;9.362;2023-06-24T11:17:20;3.00;;;1.55;;
5646;SDS011;2845;48.626;9.362;2023-06-24T11:19:54;3.05;;;1.40;;
5646;SDS011;2845;48.626;9.362;2023-06-24T11:22:31;1.98;;;1.50;;
5646;SDS011;2845;48.626;9.362;2023-06-24T11:25:05;1.95;;;1.13;;
5646;SDS011;2845;48.626;9.362;2023-06-24T11:27:49;2.65;;;1.30;;
5646;SDS011;2845;48.626;9.362;2023-06-24T11:30:24;2.90;;;1.60;;
5646;SDS011;2845;48.626;9.362;2023-06-24T11:32:59;2.83;;;1.20;;
5646;SDS011;2845;48.626;9.362;2023-06-24T11:35:34;2.85;;;1.73;;
5646;SDS011;2845;48.626;9.362;2023-06-24T11:38:10;1.63;;;1.08;;
5646;SDS011;2845;48.626;9.362;2023-06-24T11:40:46;2.22;;;1.13;;
5646;SDS011;2845;48.626;9.362;2023-06-24T11:43:22;2.92;;;1.52;;
5646;SDS011;2845;48.626;9.362;2023-06-24T11:45:59;1.98;;;1.20;;
5646;SDS011;2845;48.626;9.362;2023-06-24T11:48:38;1.98;;;1.40;;
5646;SDS011;2845;48.626;9.362;2023-06-24T11:51:13;2.22;;;1.30;;
5646;SDS011;2845;48.626;9.362;2023-06-24T11:53:49;2.38;;;1.42;;
5646;SDS011;2845;48.626;9.362;2023-06-24T11:56:33;1.90;;;1.38;;
5646;SDS011;2845;48.626;9.362;2023-06-24T11:59:14;2.58;;;1.40;;
5646;SDS011;2845;48.626;9.362;2023-06-24T12:01:54;2.08;;;1.38;;
5646;SDS011;2845;48.626;9.362;2023-06-24T12:04:30;2.45;;;1.38;;
5646;SDS011;2845;48.626;9.362;2023-06-24T12:07:05;2.88;;;1.08;;
5646;SDS011;2845;48.626;9.362;2023-06-24T12:09:40;2.38;;;1.50;;
5646;SDS011;2845;48.626;9.362;2023-06-24T12:12:15;2.05;;;1.45;;
5646;SDS011;2845;48.626;9.362;2023-06-24T12:14:49;1.70;;;1.33;;
5646;SDS011;2845;48.626;9.362;2023-06-24T12:17:24;2.17;;;1.40;;
5646;SDS011;2845;48.626;9.362;2023-06-24T12:19:58;2.33;;;1.50;;
5646;SDS011;2845;48.626;9.362;2023-06-24T12:22:32;2.33;;;1.38;;
5646;SDS011;2845;48.626;9.362;2023-06-24T12:25:08;2.90;;;1.70;;
5646;SDS011;2845;48.626;9.362;2023-06-24T12:27:43;2.35;;;1.45;;
5646;SDS011;2845;48.626;9.362;2023-06-24T12:30:19;2.60;;;1.50;;
5646;SDS011;2845;48.626;9.362;2023-06-24T12:32:54;2.80;;;1.73;;
5646;SDS011;2845;48.626;9.362;2023-06-24T12:35:28;2.80;;;1.40;;
5646;SDS011;2845;48.626;9.362;2023-06-24T12:38:02;2.33;;;1.70;;
5646;SDS011;2845;48.626;9.362;2023-06-24T12:40:38;2.55;;;1.58;;
5646;SDS011;2845;48.626;9.362;2023-06-24T12:43:12;2.55;;;1.52;;
5646;SDS011;2845;48.626;9.362;2023-06-24T12:45:46;2.85;;;1.65;;
5646;SDS011;2845;48.626;9.362;2023-06-24T12:48:21;3.70;;;2.00;;
5646;SDS011;2845;48.626;9.362;2023-06-24T12:50:55;3.00;;;1.90;;
5646;SDS011;2845;48.626;9.362;2023-06-24T12:53:32;3.63;;;2.00;;
5646;SDS011;2845;48.626;9.362;2023-06-24T12:56:07;2.60;;;2.00;;
5646;SDS011;2845;48.626;9.362;2023-06-24T12:58:42;2.75;;;1.63;;
5646;SDS011;2845;48.626;9.362;2023-06-24T13:01:16;2.58;;;1.60;;
5646;SDS011;2845;48.626;9.362;2023-06-24T13:03:51;2.78;;;1.80;;
5646;SDS011;2845;48.626;9.362;2023-06-24T13:06:25;3.25;;;1.60;;
5646;SDS011;2845;48.626;9.362;2023-06-24T13:08:59;3.03;;;1.83;;
5646;SDS011;2845;48.626;9.362;2023-06-24T13:11:35;3.60;;;1.98;;
5646;SDS011;2845;48.626;9.362;2023-06-24T13:14:11;3.53;;;1.65;;
5646;SDS011;2845;48.626;9.362;2023-06-24T13:16:47;2.92;;;1.70;;
5646;SDS011;2845;48.626;9.362;2023-06-24T13:19:22;3.95;;;1.90;;
5646;SDS011;2845;48.626;9.362;2023-06-24T13:21:56;3.17;;;1.88;;
5646;SDS011;2845;48.626;9.362;2023-06-24T13:24:30;3.53;;;2.20;;
5646;SDS011;2845;48.626;9.362;2023-06-24T13:27:06;2.85;;;1.67;;
5646;SDS011;2845;48.626;9.362;2023-06-24T13:29:41;3.63;;;2.50;;
5646;SDS011;2845;48.626;9.362;2023-06-24T13:32:18;2.63;;;1.98;;
5646;SDS011;2845;48.626;9.362;2023-06-24T13:34:53;3.90;;;2.03;;
5646;SDS011;2845;48.626;9.362;2023-06-24T13:37:27;3.75;;;1.92;;
5646;SDS011;2845;48.626;9.362;2023-06-24T13:40:03;3.45;;;2.08;;
5646;SDS011;2845;48.626;9.362;2023-06-24T13:42:42;2.58;;;1.90;;
5646;SDS011;2845;48.626;9.362;2023-06-24T13:45:17;2.70;;;2.00;;
5646;SDS011;2845;48.626;9.362;2023-06-24T13:47:51;2.72;;;1.85;;
5646;SDS011;2845;48.626;9.362;2023-06-24T13:50:27;3.17;;;1.90;;
5646;SDS011;2845;48.626;9.362;2023-06-24T13:53:02;3.42;;;2.00;;
5646;SDS011;2845;48.626;9.362;2023-06-24T13:55:36;3.38;;;2.17;;
5646;SDS011;2845;48.626;9.362;2023-06-24T13:58:11;2.95;;;1.80;;
5646;SDS011;2845;48.626;9.362;2023-06-24T14:00:48;2.75;;;1.83;;
5646;SDS011;2845;48.626;9.362;2023-06-24T14:03:23;3.45;;;2.10;;
5646;SDS011;2845;48.626;9.362;2023-06-24T14:05:57;2.50;;;2.00;;
5646;SDS011;2845;48.626;9.362;2023-06-24T14:08:34;3.65;;;1.92;;
5646;SDS011;2845;48.626;9.362;2023-06-24T14:11:08;2.58;;;1.73;;
5646;SDS011;2845;48.626;9.362;2023-06-24T14:13:45;3.72;;;2.00;;
5646;SDS011;2845;48.626;9.362;2023-06-24T14:16:20;3.42;;;2.20;;
5646;SDS011;2845;48.626;9.362;2023-06-24T14:18:54;3.00;;;1.90;;
5646;SDS011;2845;48.626;9.362;2023-06-24T14:21:28;3.58;;;1.80;;
5646;SDS011;2845;48.626;9.362;2023-06-24T14:24:04;2.60;;;2.00;;
5646;SDS011;2845;48.626;9.362;2023-06-24T14:26:48;4.10;;;2.10;;
5646;SDS011;2845;48.626;9.362;2023-06-24T14:29:23;2.65;;;1.95;;
5646;SDS011;2845;48.626;9.362;2023-06-24T14:31:58;2.67;;;1.98;;
5646;SDS011;2845;48.626;9.362;2023-06-24T14:34:32;3.70;;;2.40;;
5646;SDS011;2845;48.626;9.362;2023-06-24T14:37:06;2.58;;;2.17;;
5646;SDS011;2845;48.626;9.362;2023-06-24T14:39:41;4.05;;;2.17;;
5646;SDS011;2845;48.626;9.362;2023-06-24T14:42:15;2.75;;;2.10;;
5646;SDS011;2845;48.626;9.362;2023-06-24T14:44:51;2.70;;;1.95;;
5646;SDS011;2845;48.626;9.362;2023-06-24T14:47:25;3.38;;;2.10;;
5646;SDS011;2845;48.626;9.362;2023-06-24T14:49:59;2.40;;;1.88;;
5646;SDS011;2845;48.626;9.362;2023-06-24T14:52:33;3.28;;;2.03;;
5646;SDS011;2845;48.626;9.362;2023-06-24T14:55:08;3.65;;;2.17;;
5646;SDS011;2845;48.626;9.362;2023-06-24T14:57:42;2.63;;;1.90;;
5646;SDS011;2845;48.626;9.362;2023-06-24T15:00:18;2.80;;;2.08;;
5646;SDS011;2845;48.626;9.362;2023-06-24T15:02:53;3.08;;;2.08;;
5646;SDS011;2845;48.626;9.362;2023-06-24T15:05:27;3.35;;;2.50;;
5646;SDS011;2845;48.626;9.362;2023-06-24T15:08:01;2.25;;;1.58;;
5646;SDS011;2845;48.626;9.362;2023-06-24T15:10:35;5.30;;;2.60;;
5646;SDS011;2845;48.626;9.362;2023-06-24T15:13:10;4.07;;;2.42;;
5646;SDS011;2845;48.626;9.362;2023-06-24T15:15:45;3.10;;;2.17;;
5646;SDS011;2845;48.626;9.362;2023-06-24T15:18:21;2.88;;;2.13;;
5646;SDS011;2845;48.626;9.362;2023-06-24T15:20:56;3.75;;;2.35;;
5646;SDS011;2845;48.626;9.362;2023-06-24T15:23:30;4.15;;;2.72;;
5646;SDS011;2845;48.626;9.362;2023-06-24T15:26:04;3.28;;;2.40;;
5646;SDS011;2845;48.626;9.362;2023-06-24T15:28:38;3.47;;;2.42;;
5646;SDS011;2845;48.626;9.362;2023-06-24T15:31:14;2.55;;;2.05;;
5646;SDS011;2845;48.626;9.362;2023-06-24T15:33:48;2.85;;;2.03;;
5646;SDS011;2845;48.626;9.362;2023-06-24T15:36:22;3.10;;;2.30;;
5646;SDS011;2845;48.626;9.362;2023-06-24T15:39:01;4.70;;;2.47;;
5646;SDS011;2845;48.626;9.362;2023-06-24T15:41:35;2.85;;;2.00;;
5646;SDS011;2845;48.626;9.362;2023-06-24T15:44:09;3.65;;;2.20;;
5646;SDS011;2845;48.626;9.362;2023-06-24T15:46:45;3.40;;;2.20;;
5646;SDS011;2845;48.626;9.362;2023-06-24T15:49:20;3.20;;;2.13;;
5646;SDS011;2845;48.626;9.362;2023-06-24T15:51:54;3.38;;;1.92;;
5646;SDS011;2845;48.626;9.362;2023-06-24T15:54:28;3.97;;;2.05;;
5646;SDS011;2845;48.626;9.362;2023-06-24T15:57:02;3.42;;;2.00;;
5646;SDS011;2845;48.626;9.362;2023-06-24T15:59:37;3.40;;;2.13;;
5646;SDS011;2845;48.626;9.362;2023-06-24T16:02:13;4.25;;;2.17;;
5646;SDS011;2845;48.626;9.362;2023-06-24T16:04:47;3.78;;;1.80;;
5646;SDS011;2845;48.626;9.362;2023-06-24T16:07:21;3.53;;;1.98;;